createdAt,value
2022-08-14T00:00:59.276Z,27.45
2022-08-14T00:04:34.133Z,22.60
2022-08-14T00:07:29.566Z,26.50
2022-08-14T00:10:51.463Z,23.60
2022-08-14T00:13:58.336Z,27.70
2022-08-14T00:17:06.060Z,34.42
2022-08-14T00:20:12.624Z,21.65
2022-08-14T00:23:20.084Z,24.23
2022-08-14T00:26:25.358Z,24.20
2022-08-14T00:29:30.539Z,29.08
2022-08-14T00:32:53.229Z,20.33
2022-08-14T00:36:39.320Z,24.33
2022-08-14T00:39:27.273Z,27.48
2022-08-14T00:42:55.370Z,24.08
2022-08-14T00:45:57.713Z,23.27
2022-08-14T00:49:05.513Z,25.50
2022-08-14T00:52:10.631Z,26.53
2022-08-14T00:55:20.128Z,26.75
2022-08-14T00:58:34.487Z,31.15
2022-08-14T01:01:39.983Z,29.50
2022-08-14T01:04:54.375Z,27.58
2022-08-14T01:08:01.185Z,23.67
2022-08-14T01:11:09.682Z,24.65
2022-08-14T01:14:28.173Z,26.02
2022-08-14T01:17:50.044Z,25.02
2022-08-14T01:21:09.446Z,24.92
2022-08-14T01:24:28.775Z,29.13
2022-08-14T01:27:53.449Z,22.65
2022-08-14T01:31:02.010Z,29.63
2022-08-14T01:35:21.073Z,26.05
2022-08-14T01:37:34.289Z,28.48
2022-08-14T01:40:44.653Z,25.95
2022-08-14T01:47:02.384Z,23.80
2022-08-14T01:50:12.400Z,27.80
2022-08-14T01:56:36.887Z,22.50
2022-08-14T01:59:44.838Z,26.77
2022-08-14T02:02:52.772Z,27.52
2022-08-14T02:05:58.672Z,22.98
2022-08-14T02:09:10.116Z,25.30
2022-08-14T02:12:29.397Z,23.63
2022-08-14T02:15:36.535Z,24.60
2022-08-14T02:18:41.695Z,25.40
2022-08-14T02:21:54.896Z,23.42
2022-08-14T02:25:00.543Z,28.88
2022-08-14T02:28:25.368Z,24.73
2022-08-14T02:31:43.423Z,26.35
2022-08-14T02:34:49.083Z,24.50
2022-08-14T02:37:54.577Z,22.77
2022-08-14T02:41:00.070Z,22.15
2022-08-14T02:44:09.521Z,22.60
2022-08-14T02:47:20.596Z,23.75
2022-08-14T02:50:27.148Z,25.45
2022-08-14T02:53:33.428Z,20.73
2022-08-14T02:57:16.372Z,21.63
2022-08-14T03:00:10.104Z,21.33
2022-08-14T03:03:16.736Z,18.08
2022-08-14T03:06:35.212Z,22.15
2022-08-14T03:10:25.300Z,22.92
2022-08-14T03:13:19.340Z,20.63
2022-08-14T03:16:38.520Z,20.17
2022-08-14T03:19:43.638Z,21.92
2022-08-14T03:22:50.932Z,24.58
2022-08-14T03:25:56.373Z,21.50
2022-08-14T03:29:02.442Z,18.10
2022-08-14T03:32:10.794Z,19.08
2022-08-14T03:35:16.154Z,19.63
2022-08-14T03:39:11.708Z,29.35
2022-08-14T03:41:46.635Z,24.20
2022-08-14T03:45:27.008Z,18.88
2022-08-14T03:48:30.314Z,20.20
2022-08-14T03:51:36.757Z,21.40
2022-08-14T03:54:42.456Z,19.80
2022-08-14T03:57:48.287Z,18.38
2022-08-14T04:00:53.460Z,20.58
2022-08-14T04:04:02.814Z,19.60
2022-08-14T04:07:11.070Z,24.80
2022-08-14T04:10:17.148Z,17.55
2022-08-14T04:13:23.965Z,21.85
2022-08-14T04:16:31.624Z,21.05
2022-08-14T04:19:39.532Z,18.55
2022-08-14T04:22:46.497Z,17.02
2022-08-14T04:25:54.347Z,17.48
2022-08-14T04:29:08.249Z,18.48
2022-08-14T04:33:01.179Z,21.85
2022-08-14T04:35:56.478Z,17.05
2022-08-14T04:39:14.571Z,21.05
2022-08-14T04:42:32.903Z,20.95
2022-08-14T04:45:41.081Z,22.10
2022-08-14T04:48:51.208Z,18.33
2022-08-14T04:52:04.367Z,18.77
2022-08-14T04:55:21.453Z,19.23
2022-08-14T04:58:32.800Z,19.67
2022-08-14T05:01:39.866Z,16.15
2022-08-14T05:04:58.482Z,17.27
2022-08-14T05:08:31.875Z,22.52
2022-08-14T05:11:38.570Z,21.50
2022-08-14T05:14:53.658Z,20.10
2022-08-14T05:18:16.769Z,16.70
2022-08-14T05:22:00.552Z,16.35
2022-08-14T05:24:51.668Z,17.08
2022-08-14T05:27:57.658Z,16.60
2022-08-14T05:31:06.794Z,27.15
2022-08-14T05:34:12.583Z,25.58
2022-08-14T05:37:17.877Z,15.20
2022-08-14T05:40:27.209Z,15.75
2022-08-14T05:43:41.535Z,16.70
2022-08-14T05:46:47.125Z,11.07
2022-08-14T05:49:52.457Z,18.75
2022-08-14T05:52:57.647Z,16.50
2022-08-14T05:56:05.509Z,13.68
2022-08-14T05:59:11.506Z,13.77
2022-08-14T06:02:16.707Z,14.40
2022-08-14T06:05:23.369Z,10.13
2022-08-14T06:08:35.997Z,10.15
2022-08-14T06:11:49.815Z,12.60
2022-08-14T06:14:55.298Z,14.63
2022-08-14T06:18:01.786Z,13.35
2022-08-14T06:21:13.557Z,11.10
2022-08-14T06:24:19.522Z,9.18
2022-08-14T06:27:27.291Z,9.25
2022-08-14T06:30:46.315Z,10.45
2022-08-14T06:35:09.853Z,12.20
2022-08-14T06:37:19.055Z,11.32
2022-08-14T06:40:28.029Z,16.88
2022-08-14T06:43:36.197Z,8.52
2022-08-14T06:46:41.298Z,7.95
2022-08-14T06:49:58.012Z,9.95
2022-08-14T06:53:03.519Z,6.70
2022-08-14T06:56:09.059Z,8.32
2022-08-14T06:59:19.657Z,6.65
2022-08-14T07:02:37.442Z,5.35
2022-08-14T07:05:55.261Z,6.28
2022-08-14T07:09:01.830Z,6.30
2022-08-14T07:12:09.172Z,6.93
2022-08-14T07:15:39.954Z,8.45
2022-08-14T07:18:50.863Z,6.50
2022-08-14T07:21:56.411Z,5.60
2022-08-14T07:25:01.751Z,6.82
2022-08-14T07:28:12.780Z,13.77
2022-08-14T07:31:27.799Z,10.15
2022-08-14T07:34:40.678Z,6.63
2022-08-14T07:37:46.888Z,11.90
2022-08-14T07:40:53.366Z,6.82
2022-08-14T07:44:00.859Z,8.45
2022-08-14T07:47:26.328Z,7.57
2022-08-14T07:50:34.528Z,6.70
2022-08-14T07:53:40.841Z,8.10
2022-08-14T07:56:48.982Z,8.02
2022-08-14T07:59:56.472Z,10.00
2022-08-14T08:03:06.024Z,8.40
2022-08-14T08:06:17.574Z,9.43
2022-08-14T08:09:24.744Z,6.63
2022-08-14T08:12:38.026Z,6.00
2022-08-14T08:15:45.044Z,8.90
2022-08-14T08:18:58.289Z,7.70
2022-08-14T08:22:09.189Z,6.80
2022-08-14T08:25:17.952Z,5.47
2022-08-14T08:28:26.456Z,14.88
2022-08-14T08:31:35.163Z,10.50
2022-08-14T08:34:50.475Z,7.25
2022-08-14T08:38:01.632Z,7.82
2022-08-14T08:41:44.426Z,12.93
2022-08-14T08:44:56.610Z,7.93
2022-08-14T08:48:02.741Z,15.60
2022-08-14T08:51:30.774Z,9.98
2022-08-14T08:54:39.230Z,11.52
2022-08-14T08:57:44.800Z,8.55
2022-08-14T09:00:54.166Z,12.55
2022-08-14T09:04:04.749Z,6.70
2022-08-14T09:07:22.921Z,8.43
2022-08-14T09:10:28.578Z,7.13
2022-08-14T09:13:36.174Z,8.70
2022-08-14T09:16:45.104Z,7.05
2022-08-14T09:19:52.859Z,10.35
2022-08-14T09:23:01.681Z,6.50
2022-08-14T09:26:20.932Z,9.68
2022-08-14T09:29:28.780Z,13.00
2022-08-14T09:32:58.067Z,12.75
2022-08-14T09:36:10.870Z,8.93
2022-08-14T09:39:23.833Z,6.50
2022-08-14T09:42:50.139Z,10.27
2022-08-14T09:46:02.520Z,9.77
2022-08-14T09:49:16.250Z,11.40
2022-08-14T09:52:32.784Z,8.52
2022-08-14T09:55:42.843Z,7.15
2022-08-14T09:58:49.348Z,9.15
2022-08-14T10:01:57.379Z,7.85
2022-08-14T10:05:08.798Z,11.13
2022-08-14T10:08:26.400Z,11.48
2022-08-14T10:11:36.626Z,12.68
2022-08-14T10:14:42.423Z,9.63
2022-08-14T10:17:49.266Z,8.32
2022-08-14T10:21:00.996Z,11.48
2022-08-14T10:24:09.808Z,10.80
2022-08-14T10:27:27.004Z,15.75
2022-08-14T10:30:38.473Z,7.82
2022-08-14T10:33:47.967Z,9.40
2022-08-14T10:37:14.160Z,9.57
2022-08-14T10:40:43.351Z,8.88
2022-08-14T10:44:08.811Z,8.55
2022-08-14T10:48:07.606Z,8.17
2022-08-14T10:51:02.033Z,9.95
2022-08-14T10:54:17.087Z,13.20
2022-08-14T10:57:35.885Z,7.95
2022-08-14T11:00:57.248Z,9.82
2022-08-14T11:04:02.623Z,10.77
2022-08-14T11:07:21.094Z,8.32
2022-08-14T11:10:28.108Z,8.65
2022-08-14T11:13:34.154Z,12.90
2022-08-14T11:16:48.963Z,10.90
2022-08-14T11:20:01.714Z,8.98
2022-08-14T11:23:10.483Z,10.52
2022-08-14T11:26:19.314Z,8.95
2022-08-14T11:29:26.942Z,8.82
2022-08-14T11:32:35.013Z,9.55
2022-08-14T11:35:47.425Z,8.65
2022-08-14T11:38:54.422Z,8.63
2022-08-14T11:42:00.585Z,10.85
2022-08-14T11:45:29.811Z,11.35
2022-08-14T11:49:03.016Z,7.80
2022-08-14T11:52:10.284Z,13.15
2022-08-14T11:55:16.081Z,8.30
2022-08-14T11:58:27.949Z,11.55
2022-08-14T12:01:33.944Z,9.82
2022-08-14T12:04:55.413Z,12.88
2022-08-14T12:08:06.638Z,12.18
2022-08-14T12:11:13.787Z,7.95
2022-08-14T12:14:30.927Z,13.75
2022-08-14T12:17:49.446Z,11.07
2022-08-14T12:20:59.930Z,15.75
2022-08-14T12:24:08.560Z,7.88
2022-08-14T12:27:16.890Z,12.82
2022-08-14T12:30:37.392Z,11.70
2022-08-14T12:33:46.964Z,9.77
2022-08-14T12:37:08.248Z,7.70
2022-08-14T12:40:15.667Z,11.07
2022-08-14T12:43:26.375Z,9.15
2022-08-14T12:46:36.503Z,8.77
2022-08-14T12:49:41.745Z,12.13
2022-08-14T12:53:06.412Z,9.77
2022-08-14T12:56:32.786Z,12.20
2022-08-14T12:59:42.843Z,10.95
2022-08-14T13:02:55.206Z,15.73
2022-08-14T13:06:01.295Z,15.35
2022-08-14T13:09:11.766Z,26.45
2022-08-14T13:12:32.190Z,13.90
2022-08-14T13:15:42.373Z,11.95
2022-08-14T13:18:58.384Z,10.15
2022-08-14T13:22:10.278Z,11.15
2022-08-14T13:25:29.682Z,8.95
2022-08-14T13:28:41.265Z,8.05
2022-08-14T13:32:01.461Z,9.45
2022-08-14T13:35:12.192Z,8.90
2022-08-14T13:38:23.601Z,9.27
2022-08-14T13:41:36.196Z,8.48
2022-08-14T13:44:42.964Z,10.23
2022-08-14T13:47:48.452Z,9.47
2022-08-14T13:50:58.775Z,10.68
2022-08-14T13:54:10.610Z,7.38
2022-08-14T13:57:20.771Z,14.27
2022-08-14T14:00:52.988Z,9.15
2022-08-14T14:03:59.826Z,11.23
2022-08-14T14:07:08.337Z,10.27
2022-08-14T14:10:15.186Z,8.63
2022-08-14T14:16:30.329Z,10.75
2022-08-14T14:19:36.499Z,10.27
2022-08-14T14:23:01.430Z,16.35
2022-08-14T14:26:13.883Z,13.90
2022-08-14T14:29:24.247Z,10.82
2022-08-14T14:32:34.645Z,11.93
2022-08-14T14:35:40.317Z,13.02
2022-08-14T14:38:48.574Z,9.13
2022-08-14T14:41:56.400Z,10.80
2022-08-14T14:45:05.091Z,9.30
2022-08-14T14:48:13.562Z,15.77
2022-08-14T14:51:22.351Z,15.00
2022-08-14T14:54:31.485Z,13.03
2022-08-14T14:57:44.580Z,10.02
2022-08-14T15:00:57.178Z,10.40
2022-08-14T15:04:07.955Z,17.83
2022-08-14T15:07:17.007Z,12.60
2022-08-14T15:10:27.271Z,14.80
2022-08-14T15:13:43.317Z,10.40
2022-08-14T15:16:59.242Z,11.07
2022-08-14T15:20:10.978Z,8.90
2022-08-14T15:23:22.916Z,12.60
2022-08-14T15:26:31.966Z,15.38
2022-08-14T15:29:43.367Z,12.60
2022-08-14T15:32:48.699Z,12.55
2022-08-14T15:35:59.248Z,13.13
2022-08-14T15:39:07.717Z,19.63
2022-08-14T15:42:15.850Z,11.02
2022-08-14T15:45:23.075Z,12.00
2022-08-14T15:48:29.924Z,12.95
2022-08-14T15:51:42.409Z,11.77
2022-08-14T15:54:49.037Z,13.02
2022-08-14T15:58:03.707Z,14.90
2022-08-14T16:01:43.693Z,9.37
2022-08-14T16:04:50.798Z,12.80
2022-08-14T16:07:59.519Z,19.67
2022-08-14T16:11:08.246Z,21.70
2022-08-14T16:14:15.394Z,28.27
2022-08-14T16:17:27.781Z,13.30
2022-08-14T16:20:41.388Z,17.88
2022-08-14T16:23:53.806Z,18.52
2022-08-14T16:27:00.946Z,17.27
2022-08-14T16:30:06.744Z,15.63
2022-08-14T16:33:56.491Z,13.05
2022-08-14T16:36:50.748Z,17.83
2022-08-14T16:39:59.288Z,22.63
2022-08-14T16:43:12.924Z,21.42
2022-08-14T16:46:22.045Z,21.13
2022-08-14T16:50:03.552Z,25.02
2022-08-14T16:52:55.914Z,23.67
2022-08-14T16:56:22.985Z,29.45
2022-08-14T16:59:30.443Z,24.10
2022-08-14T17:03:01.822Z,20.60
2022-08-14T17:06:25.689Z,24.75
2022-08-14T17:09:34.364Z,20.67
2022-08-14T17:12:42.387Z,20.80
2022-08-14T17:16:06.738Z,26.48
2022-08-14T17:19:17.504Z,27.15
2022-08-14T17:22:24.653Z,24.35
2022-08-14T17:25:33.278Z,34.28
2022-08-14T17:28:51.475Z,30.23
2022-08-14T17:35:58.002Z,29.63
2022-08-14T17:39:06.400Z,32.67
2022-08-14T17:42:13.229Z,27.13
2022-08-14T17:45:27.081Z,26.23
2022-08-14T17:49:14.660Z,27.48
2022-08-14T17:52:01.961Z,28.27
2022-08-14T17:55:12.415Z,18.60
2022-08-14T17:58:21.443Z,27.60
2022-08-14T18:01:31.494Z,18.08
2022-08-14T18:04:37.906Z,17.73
2022-08-14T18:08:31.386Z,17.30
2022-08-14T18:11:15.202Z,17.27
2022-08-14T18:14:32.231Z,20.13
2022-08-14T18:21:39.666Z,11.48
2022-08-14T18:24:28.357Z,16.80
2022-08-14T18:27:38.155Z,13.40
2022-08-14T18:30:58.897Z,14.57
2022-08-14T18:34:12.023Z,19.38
2022-08-14T18:37:24.872Z,23.75
2022-08-14T18:40:38.130Z,18.77
2022-08-14T18:43:58.945Z,23.23
2022-08-14T18:47:20.163Z,29.60
2022-08-14T18:50:27.848Z,20.10
2022-08-14T18:53:51.330Z,26.92
2022-08-14T18:57:05.230Z,26.45
2022-08-14T19:00:25.471Z,22.65
2022-08-14T19:03:57.471Z,21.02
2022-08-14T19:07:17.110Z,23.88
2022-08-14T19:10:37.456Z,31.55
2022-08-14T19:13:49.049Z,30.10
2022-08-14T19:16:57.016Z,31.63
2022-08-14T19:20:07.313Z,41.80
2022-08-14T19:23:18.294Z,29.40
2022-08-14T19:26:37.657Z,26.77
2022-08-14T19:29:53.173Z,35.35
2022-08-14T19:33:03.563Z,19.40
2022-08-14T19:36:28.752Z,25.00
2022-08-14T19:39:54.031Z,28.50
2022-08-14T19:43:00.251Z,33.10
2022-08-14T19:46:38.614Z,22.15
2022-08-14T19:50:07.399Z,26.63
2022-08-14T19:53:11.032Z,40.78
2022-08-14T19:56:28.775Z,41.03
2022-08-14T20:02:48.191Z,36.33
2022-08-14T20:06:05.787Z,42.25
2022-08-14T20:11:05.758Z,32.88
2022-08-14T20:12:58.008Z,46.42
2022-08-14T20:16:11.950Z,50.25
2022-08-14T20:19:29.002Z,41.30
2022-08-14T20:22:38.685Z,43.95
2022-08-14T20:25:57.010Z,39.05
2022-08-14T20:29:06.935Z,30.58
2022-08-14T20:32:14.797Z,27.10
2022-08-14T20:35:35.733Z,26.33
2022-08-14T20:38:41.043Z,27.85
2022-08-14T20:42:15.465Z,18.55
2022-08-14T20:45:24.670Z,21.75
2022-08-14T20:48:52.257Z,24.40
2022-08-14T20:52:04.852Z,18.48
2022-08-14T20:55:23.431Z,20.52
2022-08-14T20:58:38.646Z,22.92
2022-08-14T21:01:55.214Z,25.60
2022-08-14T21:05:01.258Z,22.95
2022-08-14T21:08:22.170Z,30.75
2022-08-14T21:11:28.929Z,20.27
2022-08-14T21:14:35.565Z,30.50
2022-08-14T21:17:44.294Z,23.95
2022-08-14T21:20:49.464Z,29.35
2022-08-14T21:23:59.445Z,29.60
2022-08-14T21:27:13.147Z,19.88
2022-08-14T21:30:51.961Z,24.10
2022-08-14T21:33:56.367Z,26.95
2022-08-14T21:37:10.001Z,29.33
2022-08-14T21:40:39.812Z,27.42
2022-08-14T21:43:40.771Z,26.42
2022-08-14T21:46:47.175Z,27.55
2022-08-14T21:49:55.553Z,29.85
2022-08-14T21:53:03.947Z,24.02
2022-08-14T21:56:11.708Z,21.55
2022-08-14T21:59:18.469Z,37.63
2022-08-14T22:02:32.835Z,28.80
2022-08-14T22:05:42.078Z,28.70
2022-08-14T22:08:47.696Z,29.38
2022-08-14T22:11:58.014Z,20.67
2022-08-14T22:15:04.101Z,25.45
2022-08-14T22:18:20.418Z,22.70
2022-08-14T22:21:29.018Z,23.35
2022-08-14T22:24:38.409Z,22.10
2022-08-14T22:27:58.459Z,28.17
2022-08-14T22:31:10.181Z,24.10
2022-08-14T22:34:16.786Z,23.65
2022-08-14T22:37:27.249Z,22.67
2022-08-14T22:41:12.164Z,23.58
2022-08-14T22:44:01.262Z,23.42
2022-08-14T22:47:06.898Z,19.20
2022-08-14T22:50:32.070Z,16.95
2022-08-14T22:53:41.211Z,26.20
2022-08-14T22:56:48.037Z,19.10
2022-08-14T22:59:54.081Z,25.45
2022-08-14T23:03:01.505Z,16.67
2022-08-14T23:07:03.305Z,19.47
2022-08-14T23:09:38.588Z,22.13
2022-08-14T23:12:47.893Z,22.75
2022-08-14T23:15:59.860Z,23.42
2022-08-14T23:19:06.097Z,20.75
2022-08-14T23:22:11.491Z,20.05
2022-08-14T23:25:44.618Z,22.10
2022-08-14T23:28:57.281Z,17.65
2022-08-14T23:32:03.803Z,24.50
2022-08-14T23:35:24.073Z,18.38
2022-08-14T23:38:30.582Z,19.58
2022-08-14T23:41:45.768Z,23.35
2022-08-14T23:44:52.275Z,25.88
2022-08-14T23:47:57.710Z,20.65
2022-08-14T23:51:03.145Z,26.95
2022-08-14T23:54:47.450Z,21.85
2022-08-14T23:57:36.361Z,19.13
